Time;durP1;ratioP1;P1;durP2;ratioP2;P2;SDS_P1;SDS_P2;PMS_P1;PMS_P2;Temp;Humidity;BMP_temperature;BMP_pressure;BME280_temperature;BME280_humidity;BME280_pressure;Samples;Min_cycle;Max_cycle;Signal;HPM_P1;HPM_P2
2023/02/22 00:01:35;;;;;;;8.53;1.70;;;9.60;99.90;;;;;;5072299;28;20478;-64
2023/02/22 00:04:03;;;;;;;7.70;2.10;;;9.60;99.90;;;;;;5072791;28;20971;-65
2023/02/22 00:06:30;;;;;;;14.27;2.90;;;9.60;99.90;;;;;;5072316;28;20475;-65
2023/02/22 00:08:58;;;;;;;9.93;2.63;;;9.50;99.90;;;;;;5072070;28;20510;-64
2023/02/22 00:11:25;;;;;;;16.17;2.97;;;9.50;99.90;;;;;;5071373;28;20487;-62
2023/02/22 00:13:55;;;;;;;13.33;3.13;;;9.50;99.90;;;;;;5067241;28;20455;-65
2023/02/22 00:16:24;;;;;;;6.97;2.77;;;9.50;99.90;;;;;;5062307;28;20483;-63
2023/02/22 00:18:51;;;;;;;9.93;2.87;;;9.50;99.90;;;;;;5062349;28;20447;-65
2023/02/22 00:21:18;;;;;;;13.50;5.37;;;9.50;99.90;;;;;;5062513;28;20493;-64
2023/02/22 00:23:47;;;;;;;13.03;2.70;;;9.50;99.90;;;;;;5063314;28;20490;-62
2023/02/22 00:26:17;;;;;;;13.57;3.23;;;9.50;99.90;;;;;;5063086;28;20479;-64
2023/02/22 00:28:45;;;;;;;18.27;3.20;;;9.50;99.90;;;;;;5062001;28;20587;-66
2023/02/22 00:31:13;;;;;;;6.73;1.97;;;9.50;99.90;;;;;;5062282;28;20517;-66
2023/02/22 00:33:41;;;;;;;9.03;3.10;;;9.50;99.90;;;;;;5062647;28;20507;-64
2023/02/22 00:36:09;;;;;;;12.80;2.57;;;9.40;99.90;;;;;;5062745;28;20828;-65
2023/02/22 00:38:36;;;;;;;15.67;3.00;;;9.40;99.90;;;;;;5061795;28;21040;-65
2023/02/22 00:41:03;;;;;;;11.90;4.43;;;9.40;99.90;;;;;;5062828;28;20818;-66
2023/02/22 00:43:40;;;;;;;13.60;4.10;;;9.40;99.90;;;;;;5062301;28;20483;-65
2023/02/22 00:46:09;;;;;;;14.23;3.27;;;9.40;99.90;;;;;;5061777;28;20451;-64
2023/02/22 00:48:37;;;;;;;7.03;2.63;;;9.40;99.90;;;;;;5062092;28;20495;-64
2023/02/22 00:51:05;;;;;;;10.50;3.53;;;9.40;99.90;;;;;;5061997;28;20497;-65
2023/02/22 00:53:32;;;;;;;7.53;2.37;;;9.40;99.90;;;;;;5061824;28;20479;-64
2023/02/22 00:55:58;;;;;;;8.83;3.10;;;9.40;99.90;;;;;;5061729;28;20503;-64
2023/02/22 00:58:25;;;;;;;16.80;5.00;;;9.40;99.90;;;;;;5061917;28;20485;-64
2023/02/22 01:00:52;;;;;;;10.00;2.50;;;9.30;99.90;;;;;;5062023;28;20522;-64
2023/02/22 01:03:20;;;;;;;11.93;4.30;;;9.40;99.90;;;;;;5061617;28;20440;-64
2023/02/22 01:05:48;;;;;;;5.30;2.20;;;9.30;99.90;;;;;;5061768;28;20512;-65
2023/02/22 01:08:17;;;;;;;10.33;2.77;;;9.30;99.90;;;;;;5061835;28;20471;-66
2023/02/22 01:10:46;;;;;;;11.00;2.47;;;9.20;99.90;;;;;;5061106;28;20454;-64
2023/02/22 01:13:13;;;;;;;10.13;2.90;;;9.20;99.90;;;;;;5061206;28;20467;-65
2023/02/22 01:15:41;;;;;;;7.10;2.80;;;9.20;99.90;;;;;;5061441;28;20447;-65
2023/02/22 01:18:09;;;;;;;10.23;3.27;;;9.20;99.90;;;;;;5060906;28;20517;-64
2023/02/22 01:20:36;;;;;;;8.57;2.27;;;9.20;99.90;;;;;;5061554;28;20570;-64
2023/02/22 01:23:06;;;;;;;8.80;2.70;;;9.20;99.90;;;;;;5061235;28;20550;-66
2023/02/22 01:25:34;;;;;;;9.40;2.83;;;9.20;99.90;;;;;;5061174;28;20777;-65
2023/02/22 01:28:03;;;;;;;9.67;2.00;;;9.20;99.90;;;;;;5062268;28;20479;-65
2023/02/22 01:30:32;;;;;;;8.87;2.33;;;9.20;99.90;;;;;;5061397;28;20443;-64
2023/02/22 01:33:02;;;;;;;10.50;3.60;;;9.20;99.90;;;;;;5060920;28;20451;-65
2023/02/22 01:35:32;;;;;;;6.17;2.60;;;9.10;99.90;;;;;;5060130;28;20475;-65
2023/02/22 01:37:59;;;;;;;7.73;2.93;;;9.10;99.90;;;;;;5060203;28;20451;-62
2023/02/22 01:40:29;;;;;;;13.80;2.80;;;9.10;99.90;;;;;;5061043;28;20470;-65
2023/02/22 01:42:58;;;;;;;7.80;2.17;;;9.20;99.90;;;;;;5061633;28;20456;-64
2023/02/22 01:45:43;;;;;;;7.33;2.57;;;9.10;99.90;;;;;;5061801;28;20524;-64
2023/02/22 01:48:14;;;;;;;21.07;3.30;;;9.00;99.90;;;;;;5061946;28;20439;-65
2023/02/22 01:50:52;;;;;;;8.77;2.53;;;9.00;99.90;;;;;;5062370;28;20459;-65
2023/02/22 01:53:23;;;;;;;15.20;4.10;;;8.90;99.90;;;;;;5062067;28;20447;-66
2023/02/22 01:55:57;;;;;;;10.13;3.37;;;8.90;99.90;;;;;;5062543;28;20451;-65
2023/02/22 01:58:25;;;;;;;10.70;4.00;;;8.90;99.90;;;;;;5062495;28;20419;-64
2023/02/22 02:00:56;;;;;;;10.43;2.83;;;8.90;99.90;;;;;;5062148;28;20509;-64
2023/02/22 02:03:34;;;;;;;8.43;2.80;;;8.90;99.90;;;;;;5062862;28;20848;-65
2023/02/22 02:06:05;;;;;;;14.70;2.23;;;8.80;99.90;;;;;;5063556;28;20820;-65
2023/02/22 02:08:36;;;;;;;27.40;4.47;;;8.80;99.90;;;;;;5062978;28;20674;-63
2023/02/22 02:11:07;;;;;;;10.27;2.90;;;8.70;99.90;;;;;;5062519;28;20458;-65
2023/02/22 02:13:37;;;;;;;10.23;2.30;;;8.70;99.90;;;;;;5062906;28;20467;-64
2023/02/22 02:16:04;;;;;;;9.10;2.50;;;8.70;99.90;;;;;;5062610;28;20492;-65
2023/02/22 02:18:32;;;;;;;13.10;3.60;;;8.60;99.90;;;;;;5062340;28;20477;-64
2023/02/22 02:21:43;;;;;;;9.17;2.40;;;8.70;99.90;;;;;;5063032;28;20473;-64
2023/02/22 02:24:39;;;;;;;11.47;2.83;;;9.40;99.90;;;;;;5065543;28;20431;-66
2023/02/22 02:27:14;;;;;;;13.13;2.70;;;8.70;99.90;;;;;;5066538;28;20447;-64
2023/02/22 02:30:18;;;;;;;8.00;2.70;;;8.70;99.90;;;;;;5066506;28;20461;-65
2023/02/22 02:32:53;;;;;;;11.10;2.30;;;8.70;99.90;;;;;;5065731;28;20475;-66
2023/02/22 02:35:29;;;;;;;11.50;2.57;;;8.60;99.90;;;;;;5066357;28;20517;-64
2023/02/22 02:38:02;;;;;;;12.90;2.33;;;8.60;99.90;;;;;;5066700;28;20502;-64
2023/02/22 02:40:36;;;;;;;17.30;3.20;;;8.60;99.90;;;;;;5067181;28;20428;-66
2023/02/22 02:43:11;;;;;;;11.03;2.77;;;8.60;99.90;;;;;;5067100;28;20427;-66
2023/02/22 02:45:45;;;;;;;10.77;4.13;;;8.60;99.90;;;;;;5066014;28;20449;-65
2023/02/22 02:48:17;;;;;;;15.23;2.20;;;8.60;99.90;;;;;;5065639;28;20523;-66
2023/02/22 02:50:47;;;;;;;11.80;3.10;;;8.60;99.90;;;;;;5065041;28;20522;-64
2023/02/22 02:53:20;;;;;;;13.00;3.67;;;8.70;99.90;;;;;;5064751;28;20493;-66
2023/02/22 02:55:47;;;;;;;14.40;3.70;;;8.60;99.90;;;;;;5065681;28;20463;-65
2023/02/22 02:58:19;;;;;;;12.37;3.67;;;8.60;99.90;;;;;;5065846;28;20513;-67
2023/02/22 03:00:52;;;;;;;7.03;2.77;;;8.60;99.90;;;;;;5066021;28;20729;-65
2023/02/22 03:04:09;;;;;;;14.20;3.03;;;8.50;99.90;;;;;;5066103;28;20501;-65
2023/02/22 03:07:20;;;;;;;10.60;3.40;;;8.50;99.90;;;;;;5024421;28;20465;-65
2023/02/22 03:09:57;;;;;;;13.23;3.00;;;8.50;99.90;;;;;;4986603;28;20473;-63
2023/02/22 03:12:36;;;;;;;9.70;3.70;;;8.40;99.90;;;;;;5063264;28;20439;-65
2023/02/22 03:15:10;;;;;;;14.60;3.13;;;8.40;99.90;;;;;;5066531;28;20506;-66
2023/02/22 03:17:48;;;;;;;10.67;3.27;;;8.40;99.90;;;;;;5066464;28;20431;-66
2023/02/22 03:20:30;;;;;;;14.93;2.67;;;8.40;99.90;;;;;;5066166;28;20463;-63
2023/02/22 03:23:01;;;;;;;17.93;2.97;;;8.30;99.90;;;;;;5065518;28;20524;-63
2023/02/22 03:25:33;;;;;;;7.37;2.30;;;8.30;99.90;;;;;;5065397;28;20459;-65
2023/02/22 03:28:04;;;;;;;7.93;3.10;;;8.30;99.90;;;;;;5065770;28;20416;-67
2023/02/22 03:30:36;;;;;;;11.17;3.43;;;8.30;99.90;;;;;;5066457;28;20463;-64
2023/02/22 03:33:19;;;;;;;11.77;3.23;;;8.30;99.90;;;;;;5064920;28;20516;-64
2023/02/22 03:35:55;;;;;;;13.10;2.13;;;8.40;99.90;;;;;;5065225;28;20519;-64
2023/02/22 03:38:26;;;;;;;18.03;3.77;;;8.40;99.90;;;;;;5065277;28;20500;-65
2023/02/22 03:41:03;;;;;;;10.00;3.53;;;8.40;99.90;;;;;;5064320;28;20514;-64
2023/02/22 03:43:36;;;;;;;13.43;3.73;;;8.40;99.90;;;;;;5065188;28;20475;-64
2023/02/22 03:46:03;;;;;;;4.73;2.07;;;8.50;99.90;;;;;;5064576;28;20527;-66
2023/02/22 03:48:39;;;;;;;13.73;3.33;;;8.50;99.90;;;;;;5064937;28;20975;-65
2023/02/22 03:51:07;;;;;;;10.20;2.80;;;8.50;99.90;;;;;;5065375;28;20462;-66
2023/02/22 03:53:36;;;;;;;17.77;3.27;;;8.50;99.90;;;;;;5064491;28;20471;-65
2023/02/22 03:56:06;;;;;;;15.60;4.03;;;8.50;99.90;;;;;;5065495;28;20442;-64
2023/02/22 03:58:35;;;;;;;4.93;2.60;;;8.50;99.90;;;;;;5064749;28;20498;-65
2023/02/22 04:01:02;;;;;;;16.50;3.33;;;8.50;99.90;;;;;;5065257;28;20455;-66
2023/02/22 04:03:29;;;;;;;7.23;2.40;;;8.50;99.90;;;;;;5064673;28;20451;-64
2023/02/22 04:05:56;;;;;;;19.33;4.23;;;8.50;99.90;;;;;;5065515;28;20447;-66
2023/02/22 04:08:25;;;;;;;20.23;4.50;;;8.50;99.90;;;;;;5065002;28;20448;-65
2023/02/22 04:10:52;;;;;;;11.10;3.33;;;8.50;99.90;;;;;;5064807;28;20498;-64
2023/02/22 04:13:19;;;;;;;16.17;3.33;;;8.50;99.90;;;;;;5064592;28;20494;-65
2023/02/22 04:15:46;;;;;;;10.00;4.63;;;8.50;99.90;;;;;;5064921;28;20542;-63
2023/02/22 04:18:13;;;;;;;15.17;4.83;;;8.50;99.90;;;;;;5065643;28;20490;-64
2023/02/22 04:20:40;;;;;;;8.17;4.50;;;8.50;99.90;;;;;;5063810;28;20439;-65
2023/02/22 04:23:07;;;;;;;19.00;4.00;;;8.50;99.90;;;;;;5063283;28;20483;-64
2023/02/22 04:25:39;;;;;;;12.97;3.10;;;8.40;99.90;;;;;;5063553;28;20449;-63
2023/02/22 04:28:09;;;;;;;16.43;3.20;;;8.50;99.90;;;;;;5064409;28;20471;-66
2023/02/22 04:30:38;;;;;;;15.73;2.70;;;8.40;99.90;;;;;;5065198;28;20478;-64
2023/02/22 04:33:04;;;;;;;10.40;3.57;;;8.40;99.90;;;;;;5064612;28;20535;-63
2023/02/22 04:35:31;;;;;;;9.13;4.07;;;8.40;99.90;;;;;;5065078;28;20435;-65
2023/02/22 04:37:59;;;;;;;11.83;3.70;;;8.40;99.90;;;;;;5064971;28;20467;-65
2023/02/22 04:40:25;;;;;;;16.47;4.03;;;8.40;99.90;;;;;;5064385;28;20486;-65
2023/02/22 04:42:57;;;;;;;15.80;3.40;;;8.40;99.90;;;;;;5064752;28;20868;-64
2023/02/22 04:45:24;;;;;;;12.70;4.37;;;8.40;99.90;;;;;;5063720;28;20526;-64
2023/02/22 04:47:51;;;;;;;5.93;3.40;;;8.40;99.90;;;;;;5063990;28;20469;-66
2023/02/22 04:50:19;;;;;;;14.80;3.43;;;8.40;99.90;;;;;;5064259;28;20498;-64
2023/02/22 04:52:46;;;;;;;12.60;4.53;;;8.40;99.90;;;;;;5064960;28;20454;-65
2023/02/22 04:55:17;;;;;;;11.67;4.60;;;8.40;99.90;;;;;;5064810;28;20495;-65
2023/02/22 04:57:44;;;;;;;12.33;4.47;;;8.40;99.90;;;;;;5064575;28;20432;-65
2023/02/22 05:00:17;;;;;;;8.20;3.77;;;8.40;99.90;;;;;;5064234;28;20517;-64
2023/02/22 05:02:44;;;;;;;20.40;3.80;;;8.40;99.90;;;;;;5064341;28;20505;-65
2023/02/22 05:05:17;;;;;;;15.33;4.23;;;8.40;99.90;;;;;;5063938;28;20880;-64
2023/02/22 05:07:44;;;;;;;16.40;3.30;;;8.50;99.90;;;;;;5062932;28;20459;-64
2023/02/22 05:10:11;;;;;;;10.70;4.13;;;8.40;99.90;;;;;;5062715;28;21102;-63
2023/02/22 05:12:38;;;;;;;14.60;3.73;;;8.40;99.90;;;;;;5062467;28;20495;-62
2023/02/22 05:15:06;;;;;;;17.63;4.40;;;8.50;99.90;;;;;;5061801;28;20936;-63
2023/02/22 05:17:35;;;;;;;6.63;4.67;;;8.40;99.90;;;;;;5061819;28;20514;-65
2023/02/22 05:20:03;;;;;;;12.47;5.50;;;8.40;99.90;;;;;;5061933;28;20528;-64
2023/02/22 05:22:33;;;;;;;23.13;4.30;;;8.40;99.90;;;;;;5062325;28;20479;-64
2023/02/22 05:25:03;;;;;;;17.30;4.33;;;8.40;99.90;;;;;;5062211;28;20511;-65
2023/02/22 05:27:33;;;;;;;10.30;4.60;;;8.40;99.90;;;;;;5063188;28;20900;-65
2023/02/22 05:30:03;;;;;;;26.73;5.37;;;8.00;99.90;;;;;;5062734;28;20542;-65
2023/02/22 05:32:30;;;;;;;12.90;3.87;;;8.40;99.90;;;;;;5063422;28;20424;-65
2023/02/22 05:35:00;;;;;;;13.40;4.37;;;8.40;99.90;;;;;;5064497;28;20987;-65
2023/02/22 05:37:30;;;;;;;11.53;4.70;;;8.40;99.90;;;;;;5063887;28;20465;-64
2023/02/22 05:39:57;;;;;;;12.37;4.93;;;8.40;99.90;;;;;;5063097;28;20491;-65
2023/02/22 05:42:23;;;;;;;13.50;3.97;;;8.50;99.90;;;;;;5063404;28;21010;-67
2023/02/22 05:44:50;;;;;;;20.80;4.93;;;8.50;99.90;;;;;;5063857;28;20485;-64
2023/02/22 05:47:17;;;;;;;13.13;4.77;;;8.40;99.90;;;;;;5065273;28;20475;-65
2023/02/22 05:49:44;;;;;;;10.60;4.47;;;8.50;99.90;;;;;;5065841;28;20447;-64
2023/02/22 05:52:12;;;;;;;13.33;5.03;;;8.50;99.90;;;;;;5068608;28;20439;-64
2023/02/22 05:54:39;;;;;;;7.10;3.50;;;8.50;99.90;;;;;;5068326;28;20474;-65
2023/02/22 05:57:13;;;;;;;17.57;4.70;;;8.50;99.90;;;;;;5068045;28;20499;-64
2023/02/22 05:59:40;;;;;;;11.97;3.63;;;8.60;99.90;;;;;;5068586;28;20435;-65
2023/02/22 06:02:07;;;;;;;10.33;3.20;;;8.60;99.90;;;;;;5068768;28;20498;-66
2023/02/22 06:04:34;;;;;;;8.43;3.80;;;8.60;99.90;;;;;;5068688;28;20924;-65
2023/02/22 06:07:02;;;;;;;23.70;4.37;;;8.70;99.90;;;;;;5068396;28;20522;-64
2023/02/22 06:09:31;;;;;;;8.33;2.67;;;8.70;99.90;;;;;;5069115;28;20423;-64
2023/02/22 06:11:58;;;;;;;15.80;4.50;;;8.70;99.90;;;;;;5069123;28;20463;-64
2023/02/22 06:14:24;;;;;;;7.20;2.83;;;8.70;99.90;;;;;;5069097;28;20458;-65
2023/02/22 06:16:54;;;;;;;15.13;3.73;;;8.70;99.90;;;;;;5068808;28;20439;-65
2023/02/22 06:19:21;;;;;;;10.00;3.90;;;8.70;99.90;;;;;;5069155;28;20474;-65
2023/02/22 06:21:52;;;;;;;26.93;4.10;;;8.70;99.90;;;;;;5069045;28;20438;-64
2023/02/22 06:24:20;;;;;;;7.33;3.27;;;8.70;99.90;;;;;;5068997;28;20474;-64
2023/02/22 06:26:55;;;;;;;11.10;3.90;;;8.70;99.90;;;;;;5069360;28;20465;-64
2023/02/22 06:29:22;;;;;;;7.20;3.27;;;8.70;99.90;;;;;;5068671;28;20435;-64
2023/02/22 06:31:49;;;;;;;9.70;3.00;;;8.80;99.90;;;;;;5068536;28;20457;-65
2023/02/22 06:34:16;;;;;;;17.87;4.43;;;8.80;99.90;;;;;;5068852;28;20474;-65
2023/02/22 06:36:43;;;;;;;15.37;4.30;;;8.90;99.90;;;;;;5068472;28;20983;-65
2023/02/22 06:39:10;;;;;;;19.93;4.73;;;8.90;99.90;;;;;;5069115;28;20478;-65
2023/02/22 06:41:37;;;;;;;13.83;4.50;;;8.90;99.90;;;;;;5064511;28;20471;-63
2023/02/22 06:44:09;;;;;;;27.77;5.87;;;8.90;99.90;;;;;;5065348;28;20494;-65
2023/02/22 06:46:36;;;;;;;11.63;4.10;;;9.00;99.90;;;;;;5064868;28;20524;-64
2023/02/22 06:49:03;;;;;;;14.33;5.00;;;9.00;99.90;;;;;;5067479;28;20528;-65
2023/02/22 06:51:30;;;;;;;9.10;4.77;;;9.00;99.90;;;;;;5066063;28;20450;-62
2023/02/22 06:53:57;;;;;;;10.10;3.80;;;9.10;99.90;;;;;;5064344;28;20458;-64
2023/02/22 06:56:24;;;;;;;16.53;4.17;;;9.10;99.90;;;;;;5063997;28;20439;-63
2023/02/22 06:58:51;;;;;;;10.93;3.80;;;9.10;99.90;;;;;;5061893;28;20532;-65
2023/02/22 07:01:19;;;;;;;9.73;3.90;;;9.00;99.90;;;;;;5063785;28;20483;-65
2023/02/22 07:03:48;;;;;;;8.73;3.30;;;9.10;99.90;;;;;;5061951;28;20527;-67
2023/02/22 07:06:15;;;;;;;8.20;4.50;;;9.10;99.90;;;;;;5061459;28;20471;-65
2023/02/22 07:08:45;;;;;;;11.33;3.87;;;9.10;99.90;;;;;;5064482;28;20470;-64
2023/02/22 07:11:12;;;;;;;15.43;4.87;;;9.00;99.90;;;;;;5064521;28;20556;-65
2023/02/22 07:13:39;;;;;;;19.10;3.90;;;9.00;99.90;;;;;;5064189;28;20828;-65
2023/02/22 07:16:07;;;;;;;19.53;5.20;;;9.00;99.90;;;;;;5065170;28;20469;-66
2023/02/22 07:18:35;;;;;;;15.33;5.37;;;9.00;99.90;;;;;;5065639;28;20471;-66
2023/02/22 07:21:04;;;;;;;23.47;5.50;;;9.00;99.90;;;;;;5067126;28;20482;-64
2023/02/22 07:23:31;;;;;;;17.80;5.20;;;9.00;99.90;;;;;;5065660;28;20574;-64
2023/02/22 07:26:00;;;;;;;16.30;4.53;;;9.00;99.90;;;;;;5064320;28;20536;-64
2023/02/22 07:28:27;;;;;;;15.80;6.07;;;9.10;99.90;;;;;;5065506;28;20455;-65
2023/02/22 07:30:54;;;;;;;11.97;4.40;;;9.10;99.90;;;;;;5064869;28;20467;-65
2023/02/22 07:33:21;;;;;;;12.50;5.30;;;9.10;99.90;;;;;;5064575;28;20435;-65
2023/02/22 07:35:50;;;;;;;14.43;4.70;;;9.10;99.90;;;;;;5064422;28;20498;-63
2023/02/22 07:38:19;;;;;;;15.77;4.70;;;9.20;99.90;;;;;;5064153;28;20447;-64
2023/02/22 07:40:46;;;;;;;15.50;4.30;;;9.20;99.90;;;;;;5063979;28;20545;-64
2023/02/22 07:43:16;;;;;;;11.00;6.00;;;9.20;99.90;;;;;;5062188;28;20581;-65
2023/02/22 07:45:47;;;;;;;25.30;4.37;;;9.20;99.90;;;;;;5061145;28;20512;-65
2023/02/22 07:48:15;;;;;;;23.13;5.60;;;9.20;99.90;;;;;;5061182;28;20478;-65
2023/02/22 07:50:42;;;;;;;12.27;5.00;;;9.20;99.90;;;;;;5060961;28;20447;-65
2023/02/22 07:53:13;;;;;;;15.33;7.20;;;9.20;99.90;;;;;;5060819;28;20817;-65
2023/02/22 07:55:39;;;;;;;10.50;5.17;;;9.20;99.90;;;;;;5060400;28;20427;-65
2023/02/22 07:58:12;;;;;;;20.10;6.00;;;9.30;99.90;;;;;;5060187;28;20777;-64
2023/02/22 08:00:43;;;;;;;19.97;6.10;;;9.20;99.90;;;;;;5060152;28;20467;-63
2023/02/22 08:03:12;;;;;;;17.37;5.63;;;9.30;99.90;;;;;;5060676;28;20463;-65
2023/02/22 08:05:41;;;;;;;21.10;6.50;;;9.20;99.90;;;;;;5059614;28;20528;-62
2023/02/22 08:08:09;;;;;;;21.17;7.10;;;9.30;99.90;;;;;;5059859;28;20550;-66
2023/02/22 08:10:37;;;;;;;20.57;6.77;;;9.20;99.90;;;;;;5059670;28;20475;-65
2023/02/22 08:13:05;;;;;;;10.33;5.17;;;9.20;99.90;;;;;;5060317;28;20503;-66
2023/02/22 08:15:34;;;;;;;17.97;6.70;;;9.20;99.90;;;;;;5059526;28;20499;-65
2023/02/22 08:18:02;;;;;;;13.70;5.10;;;9.30;99.90;;;;;;5059826;28;20448;-65
2023/02/22 08:20:29;;;;;;;10.43;4.33;;;9.30;99.90;;;;;;5059226;28;20470;-66
2023/02/22 08:22:57;;;;;;;13.73;4.10;;;9.30;99.90;;;;;;5059654;28;21077;-66
2023/02/22 08:25:28;;;;;;;16.97;4.90;;;9.30;99.90;;;;;;5060493;28;20452;-65
2023/02/22 08:28:00;;;;;;;13.30;5.60;;;9.30;99.90;;;;;;5059723;28;20501;-65
2023/02/22 08:30:28;;;;;;;19.97;7.23;;;9.30;99.90;;;;;;5059386;28;20534;-67
2023/02/22 08:32:57;;;;;;;15.60;4.47;;;9.30;99.90;;;;;;5061994;28;20470;-67
2023/02/22 08:35:26;;;;;;;12.80;4.43;;;9.40;99.90;;;;;;5078283;28;20474;-58
2023/02/22 08:37:57;;;;;;;12.50;4.90;;;9.40;99.90;;;;;;5077564;28;20472;-62
2023/02/22 08:40:29;;;;;;;16.43;5.57;;;9.50;99.90;;;;;;5073471;28;20454;-64
2023/02/22 08:42:57;;;;;;;19.57;4.83;;;9.60;99.90;;;;;;5070696;28;20477;-66
2023/02/22 08:45:24;;;;;;;15.73;4.97;;;9.70;99.90;;;;;;5062715;28;20474;-64
2023/02/22 08:47:51;;;;;;;11.10;4.00;;;9.70;99.90;;;;;;5062871;28;20478;-65
2023/02/22 08:50:21;;;;;;;9.20;2.60;;;9.70;99.90;;;;;;5062010;28;20443;-64
2023/02/22 08:52:50;;;;;;;12.53;4.30;;;9.70;99.90;;;;;;5062725;28;20462;-64
2023/02/22 08:55:20;;;;;;;12.80;4.80;;;9.70;99.90;;;;;;5062055;28;20464;-64
2023/02/22 08:57:49;;;;;;;31.53;5.07;;;9.70;99.90;;;;;;5062626;28;20451;-65
2023/02/22 09:00:17;;;;;;;24.70;8.93;;;9.80;99.90;;;;;;5062913;28;20471;-66
2023/02/22 09:02:47;;;;;;;16.57;5.27;;;9.80;99.90;;;;;;5062589;28;20447;-67
2023/02/22 09:05:15;;;;;;;11.50;4.20;;;9.80;99.90;;;;;;5061030;28;20477;-64
2023/02/22 09:07:43;;;;;;;10.87;4.07;;;9.90;99.90;;;;;;5058787;28;20458;-63
2023/02/22 09:10:14;;;;;;;17.23;4.70;;;9.90;99.90;;;;;;5057636;28;20467;-66
2023/02/22 09:12:41;;;;;;;14.63;4.00;;;9.90;99.90;;;;;;5058220;28;20470;-66
2023/02/22 09:15:11;;;;;;;7.57;3.70;;;9.90;99.90;;;;;;5058385;28;20486;-65
2023/02/22 09:17:38;;;;;;;16.53;4.43;;;10.00;99.90;;;;;;5057721;28;20499;-66
2023/02/22 09:20:06;;;;;;;8.70;3.87;;;10.00;99.90;;;;;;5057654;28;20447;-65
2023/02/22 09:22:33;;;;;;;22.83;4.30;;;10.00;99.90;;;;;;5056797;28;20485;-64
2023/02/22 09:25:00;;;;;;;11.03;4.07;;;10.10;99.90;;;;;;5057438;28;20566;-65
2023/02/22 09:27:28;;;;;;;18.37;3.47;;;10.10;99.90;;;;;;5057686;28;20845;-65
2023/02/22 09:29:55;;;;;;;8.83;4.47;;;10.20;99.90;;;;;;5057626;28;20444;-65
2023/02/22 09:32:26;;;;;;;21.50;4.10;;;10.20;99.90;;;;;;5057655;28;20447;-64
2023/02/22 09:34:54;;;;;;;18.53;4.40;;;10.20;99.90;;;;;;5057798;28;20478;-65
2023/02/22 09:37:21;;;;;;;18.00;3.23;;;10.20;99.90;;;;;;5058186;28;20920;-65
2023/02/22 09:39:48;;;;;;;15.17;4.83;;;10.20;99.90;;;;;;5057806;28;20550;-65
2023/02/22 09:42:29;;;;;;;22.00;4.87;;;10.30;99.90;;;;;;5060034;28;20455;-66
2023/02/22 09:45:04;;;;;;;21.63;3.73;;;10.40;99.90;;;;;;5058067;28;20497;-65
2023/02/22 09:47:39;;;;;;;10.00;4.03;;;10.40;99.90;;;;;;5058414;28;20458;-65
2023/02/22 09:50:14;;;;;;;13.23;4.03;;;10.50;99.90;;;;;;5060123;28;20466;-65
2023/02/22 09:52:47;;;;;;;8.57;3.40;;;10.60;99.90;;;;;;5059509;28;20455;-65
2023/02/22 09:55:27;;;;;;;26.47;5.43;;;10.70;99.90;;;;;;5057073;28;20518;-63
2023/02/22 09:57:57;;;;;;;18.43;6.03;;;10.70;99.90;;;;;;5057370;28;20439;-64
2023/02/22 10:00:32;;;;;;;8.20;4.13;;;10.80;99.90;;;;;;5057436;28;20818;-65
2023/02/22 10:03:17;;;;;;;5.57;3.20;;;10.90;99.90;;;;;;5057808;28;20426;-65
2023/02/22 10:05:52;;;;;;;5.97;3.67;;;10.90;99.90;;;;;;5059931;28;20522;-65
2023/02/22 10:08:20;;;;;;;12.90;4.73;;;10.90;99.90;;;;;;5058419;28;20486;-66
2023/02/22 10:10:55;;;;;;;12.27;2.93;;;10.90;99.90;;;;;;5057850;28;20450;-67
2023/02/22 10:13:29;;;;;;;22.47;10.57;;;10.90;99.90;;;;;;5054356;28;20471;-66
2023/02/22 10:16:03;;;;;;;15.40;4.40;;;11.10;99.90;;;;;;5054745;28;20515;-64
2023/02/22 10:18:55;;;;;;;12.13;3.90;;;11.10;99.90;;;;;;5054644;28;20558;-65
2023/02/22 10:21:39;;;;;;;10.70;3.13;;;11.20;99.90;;;;;;5039558;28;20950;-66
2023/02/22 10:24:16;;;;;;;13.73;3.40;;;11.30;99.90;;;;;;5056758;28;20833;-66
2023/02/22 10:26:45;;;;;;;9.40;3.63;;;11.30;99.90;;;;;;5057197;28;20427;-64
2023/02/22 10:29:17;;;;;;;10.03;4.10;;;11.30;99.90;;;;;;5057626;28;20974;-66
2023/02/22 10:31:48;;;;;;;25.47;6.23;;;11.30;99.90;;;;;;5057035;28;20518;-66
2023/02/22 10:34:24;;;;;;;10.53;3.00;;;11.30;99.90;;;;;;5057071;28;20428;-66
2023/02/22 10:36:57;;;;;;;19.43;3.33;;;11.30;99.90;;;;;;5057585;28;20519;-65
2023/02/22 10:39:30;;;;;;;8.90;3.10;;;11.30;99.90;;;;;;5057067;28;20527;-65
2023/02/22 10:42:04;;;;;;;11.03;3.57;;;11.40;99.90;;;;;;5057786;28;20435;-64
2023/02/22 10:44:31;;;;;;;10.67;4.07;;;11.40;99.90;;;;;;5061459;28;20466;-64
2023/02/22 10:47:00;;;;;;;15.23;3.50;;;11.40;99.90;;;;;;5060881;28;20899;-63
2023/02/22 10:49:36;;;;;;;7.97;3.13;;;11.40;99.90;;;;;;5061257;28;20479;-64
2023/02/22 10:52:04;;;;;;;17.43;3.20;;;11.40;99.90;;;;;;5061749;28;20470;-66
2023/02/22 10:54:39;;;;;;;9.27;4.17;;;11.40;99.90;;;;;;5061107;28;20498;-65
2023/02/22 10:57:06;;;;;;;20.27;3.93;;;11.40;99.90;;;;;;5060513;28;20474;-65
2023/02/22 10:59:34;;;;;;;13.90;4.10;;;11.30;99.90;;;;;;5060905;28;20474;-65
2023/02/22 11:02:17;;;;;;;25.37;4.40;;;11.30;99.90;;;;;;5061633;28;20467;-64
2023/02/22 11:04:48;;;;;;;10.17;4.37;;;11.40;99.90;;;;;;5063075;28;20571;-65
2023/02/22 11:07:22;;;;;;;8.87;3.27;;;11.30;99.90;;;;;;5060269;28;20438;-66
2023/02/22 11:09:52;;;;;;;15.90;3.87;;;11.30;99.90;;;;;;5060611;28;20432;-66
2023/02/22 11:12:26;;;;;;;9.50;3.60;;;11.20;99.90;;;;;;5062611;28;20534;-64
2023/02/22 11:14:53;;;;;;;9.17;2.97;;;11.20;99.90;;;;;;5063193;28;20491;-65
2023/02/22 11:17:30;;;;;;;7.93;3.03;;;11.30;99.90;;;;;;5063015;28;20450;-66
2023/02/22 11:20:01;;;;;;;11.10;5.37;;;11.30;99.90;;;;;;5062686;28;20463;-66
2023/02/22 11:22:31;;;;;;;12.03;3.47;;;11.30;99.90;;;;;;5063324;28;20463;-66
2023/02/22 11:25:02;;;;;;;5.90;2.93;;;11.30;99.90;;;;;;5062157;28;20491;-65
2023/02/22 11:27:37;;;;;;;10.80;3.50;;;11.30;99.90;;;;;;5062378;28;20428;-65
2023/02/22 11:30:16;;;;;;;13.60;3.93;;;11.30;99.90;;;;;;5062967;28;20439;-63
2023/02/22 11:32:45;;;;;;;8.90;3.77;;;11.10;99.90;;;;;;5062667;28;20496;-65
2023/02/22 11:35:31;;;;;;;16.70;3.27;;;11.30;99.90;;;;;;5062548;28;20550;-65
2023/02/22 11:38:17;;;;;;;7.53;3.03;;;11.30;99.90;;;;;;5062661;28;20819;-67
2023/02/22 11:40:45;;;;;;;11.20;3.13;;;11.30;99.90;;;;;;5061530;28;20892;-67
2023/02/22 11:43:16;;;;;;;13.70;3.70;;;11.30;99.90;;;;;;5057663;28;20900;-63
2023/02/22 11:46:01;;;;;;;12.67;3.60;;;11.20;99.90;;;;;;5057129;28;20509;-66
2023/02/22 11:48:30;;;;;;;7.80;2.50;;;11.30;99.90;;;;;;5056927;28;20482;-65
2023/02/22 11:51:17;;;;;;;6.80;2.57;;;11.30;99.90;;;;;;5059814;28;20771;-64
2023/02/22 11:54:21;;;;;;;17.63;3.00;;;11.30;99.90;;;;;;5060934;28;20494;-63
2023/02/22 11:56:54;;;;;;;11.67;2.77;;;11.30;99.90;;;;;;5062139;28;20432;-64
2023/02/22 11:59:30;;;;;;;12.97;3.10;;;11.30;99.90;;;;;;5061522;28;20475;-65
2023/02/22 12:02:04;;;;;;;10.40;3.37;;;11.30;99.90;;;;;;5062111;28;20508;-63
2023/02/22 12:04:55;;;;;;;10.00;3.47;;;11.30;99.90;;;;;;5062522;28;20560;-65
2023/02/22 12:07:36;;;;;;;13.00;3.17;;;11.30;99.90;;;;;;5061876;28;20435;-65
2023/02/22 12:10:14;;;;;;;14.07;2.90;;;11.30;99.90;;;;;;5061796;28;20536;-66
2023/02/22 12:12:51;;;;;;;12.03;3.17;;;11.30;99.90;;;;;;5062122;28;20420;-65
2023/02/22 12:15:27;;;;;;;15.87;3.90;;;11.30;99.90;;;;;;5061823;28;20597;-66
2023/02/22 12:18:04;;;;;;;22.93;9.40;;;11.30;99.90;;;;;;5061870;28;20411;-64
2023/02/22 12:20:38;;;;;;;8.67;3.97;;;11.30;99.90;;;;;;5061535;28;21010;-66
2023/02/22 12:23:18;;;;;;;9.60;3.07;;;11.40;99.90;;;;;;5061138;28;20502;-65
2023/02/22 12:25:57;;;;;;;12.20;3.17;;;11.40;99.90;;;;;;5061046;28;20809;-65
2023/02/22 12:28:30;;;;;;;18.03;3.97;;;11.50;99.90;;;;;;5061803;28;20503;-65
2023/02/22 12:31:10;;;;;;;7.27;2.73;;;11.60;99.90;;;;;;5061319;28;20471;-66
2023/02/22 12:33:46;;;;;;;18.70;3.60;;;11.60;99.90;;;;;;5061546;28;20522;-65
2023/02/22 12:36:19;;;;;;;20.40;3.53;;;11.70;99.90;;;;;;5061336;28;20589;-65
2023/02/22 12:38:54;;;;;;;15.37;4.33;;;11.70;99.90;;;;;;5061001;28;20562;-65
2023/02/22 12:41:30;;;;;;;12.27;3.80;;;11.80;99.90;;;;;;5061177;28;20518;-66
2023/02/22 12:44:04;;;;;;;21.20;4.27;;;11.80;99.90;;;;;;5060809;28;20530;-66
2023/02/22 12:46:36;;;;;;;11.87;2.40;;;11.90;99.90;;;;;;5061321;28;20498;-64
2023/02/22 12:49:10;;;;;;;19.40;2.87;;;11.90;99.90;;;;;;5061513;28;20550;-66
2023/02/22 12:51:42;;;;;;;17.57;2.47;;;11.80;99.90;;;;;;5061179;28;20475;-65
2023/02/22 12:54:20;;;;;;;10.40;2.80;;;11.80;99.90;;;;;;5061184;28;20541;-66
2023/02/22 12:56:54;;;;;;;12.93;3.07;;;11.80;99.90;;;;;;5060786;28;20448;-64
2023/02/22 12:59:27;;;;;;;3.67;1.70;;;11.70;99.90;;;;;;5059490;28;20455;-64
2023/02/22 13:01:59;;;;;;;12.03;2.90;;;11.70;99.90;;;;;;5060292;28;20432;-65
2023/02/22 13:04:26;;;;;;;14.50;2.73;;;11.60;99.90;;;;;;5060046;28;20471;-65
2023/02/22 13:07:09;;;;;;;9.80;2.20;;;11.60;99.90;;;;;;5060844;28;20443;-64